Time;durP1;ratioP1;P1;durP2;ratioP2;P2;SDS_P1;SDS_P2;PMS_P1;PMS_P2;Temp;Humidity;BMP_temperature;BMP_pressure;BME280_temperature;BME280_humidity;BME280_pressure;Samples;Min_cycle;Max_cycle;Signal;HPM_P1;HPM_P2
2022/09/16 00:01:16;;;;;;;16.38;11.25;;;;;;;10.09;79.03;98421.81;5073292;28;20032;-61
2022/09/16 00:03:43;;;;;;;19.75;9.90;;;;;;;10.05;79.02;98420.47;5072968;28;20113;-54
2022/09/16 00:06:23;;;;;;;15.88;10.27;;;;;;;10.26;79.34;98433.50;5057941;28;20055;-55
2022/09/16 00:08:49;;;;;;;17.20;10.23;;;;;;;10.34;79.05;98422.84;5053113;28;20033;-58
2022/09/16 00:11:16;;;;;;;17.27;10.25;;;;;;;10.52;78.22;98426.50;5033598;28;20086;-56
2022/09/16 00:13:41;;;;;;;18.48;10.70;;;;;;;10.58;78.01;98409.78;5047690;28;20033;-54
2022/09/16 00:16:22;;;;;;;16.75;10.25;;;;;;;10.79;77.87;98421.94;5072997;28;20090;-56
2022/09/16 00:18:51;;;;;;;19.55;10.55;;;;;;;10.81;77.17;98409.25;5073428;28;20032;-56
2022/09/16 00:21:17;;;;;;;17.35;9.85;;;;;;;10.84;76.85;98409.75;5071011;28;20033;-57
2022/09/16 00:23:42;;;;;;;15.88;11.35;;;;;;;10.84;76.72;98415.13;5073370;28;20079;-52
2022/09/16 00:26:08;;;;;;;19.83;10.57;;;;;;;10.80;76.55;98404.88;5053442;28;20068;-56
2022/09/16 00:28:33;;;;;;;16.13;10.57;;;;;;;10.84;76.58;98416.94;5053129;28;20033;-54
2022/09/16 00:31:00;;;;;;;18.23;10.82;;;;;;;10.85;76.67;98421.28;5052462;28;20406;-56
2022/09/16 00:33:27;;;;;;;19.33;10.68;;;;;;;10.84;76.83;98414.25;5066887;28;20025;-57
2022/09/16 00:36:10;;;;;;;16.90;10.63;;;;;;;10.88;76.56;98424.50;5073269;28;20363;-55
2022/09/16 00:38:36;;;;;;;11.60;9.80;;;;;;;10.71;76.67;98412.03;5070540;28;20032;-55
2022/09/16 00:41:02;;;;;;;17.05;10.60;;;;;;;10.73;76.78;98418.91;5072422;28;20048;-56
2022/09/16 00:43:27;;;;;;;17.40;10.70;;;;;;;10.71;76.56;98420.91;5072920;28;20118;-55
2022/09/16 00:46:00;;;;;;;19.17;10.52;;;;;;;10.79;76.87;98427.31;5065482;28;20112;-55
2022/09/16 00:48:29;;;;;;;14.90;10.15;;;;;;;10.77;76.63;98425.63;5052489;28;20043;-52
2022/09/16 00:51:04;;;;;;;16.10;10.07;;;;;;;10.85;76.79;98423.97;5051965;28;20064;-54
2022/09/16 00:53:44;;;;;;;17.65;9.95;;;;;;;10.98;76.67;98435.09;5067273;28;20066;-55
2022/09/16 00:56:13;;;;;;;16.88;9.70;;;;;;;10.98;76.01;98420.88;5072536;28;20044;-55
2022/09/16 00:58:46;;;;;;;13.95;9.70;;;;;;;11.08;76.20;98424.25;5064864;28;20020;-55
2022/09/16 01:01:11;;;;;;;16.85;10.15;;;;;;;10.94;75.19;98398.94;5051917;28;20047;-55
2022/09/16 01:03:44;;;;;;;14.48;9.77;;;;;;;11.09;75.56;98419.72;5053830;28;20116;-55
2022/09/16 01:06:12;;;;;;;18.50;9.85;;;;;;;10.95;75.62;98405.97;5034974;28;20457;-54
2022/09/16 01:08:41;;;;;;;19.90;10.35;;;;;;;10.91;76.03;98416.16;5052222;28;20207;-53
2022/09/16 01:11:06;;;;;;;18.42;10.43;;;;;;;10.86;75.62;98409.63;5064948;28;20033;-54
2022/09/16 01:13:32;;;;;;;13.45;9.57;;;;;;;10.76;76.34;98412.41;5071888;28;20216;-54
2022/09/16 01:16:14;;;;;;;17.35;10.52;;;;;;;10.81;76.21;98402.06;5070607;28;20159;-56
2022/09/16 01:18:53;;;;;;;17.65;10.52;;;;;;;10.69;76.77;98401.50;5072031;28;20059;-55
2022/09/16 01:21:18;;;;;;;18.73;11.23;;;;;;;10.57;76.49;98397.41;5069139;28;20369;-54
2022/09/16 01:24:07;;;;;;;15.38;10.68;;;;;;;10.61;76.88;98388.09;5052621;28;20032;-57
2022/09/16 01:26:51;;;;;;;16.10;10.07;;;;;;;10.57;77.38;98400.09;5051436;28;20044;-51
2022/09/16 01:29:37;;;;;;;13.65;10.30;;;;;;;10.40;77.20;98392.00;5051931;28;20036;-56
2022/09/16 01:32:05;;;;;;;14.70;10.10;;;;;;;10.38;77.44;98396.63;5052200;28;20040;-55
2022/09/16 01:35:03;;;;;;;13.63;10.73;;;;;;;10.37;77.91;98402.97;5059700;28;20028;-56
2022/09/16 01:37:51;;;;;;;18.80;10.25;;;;;;;10.38;78.06;98407.34;5071717;28;20040;-56
2022/09/16 01:40:41;;;;;;;13.82;10.00;;;;;;;10.30;77.94;98401.91;5070243;28;20133;-56
2022/09/16 01:43:34;;;;;;;16.85;10.73;;;;;;;10.34;78.38;98397.91;5071505;28;20123;-54
2022/09/16 01:46:17;;;;;;;13.90;10.23;;;;;;;10.33;78.66;98406.94;5062638;28;20052;-54
2022/09/16 01:49:05;;;;;;;15.82;10.48;;;;;;;10.44;78.51;98395.16;5051342;28;20126;-54
2022/09/16 01:51:49;;;;;;;16.55;10.40;;;;;;;10.57;78.33;98410.78;5053336;28;20041;-54
2022/09/16 01:54:26;;;;;;;16.33;10.07;;;;;;;10.67;77.68;98402.66;5053786;28;20387;-55
2022/09/16 01:57:01;;;;;;;14.52;9.95;;;;;;;10.69;77.40;98398.81;5071406;28;20028;-53
2022/09/16 01:59:51;;;;;;;15.15;10.13;;;;;;;10.77;77.31;98393.50;5068450;28;20510;-51
2022/09/16 02:02:26;;;;;;;18.55;10.30;;;;;;;10.71;77.24;98395.97;5054122;28;20491;-54
2022/09/16 02:04:55;;;;;;;16.40;10.55;;;;;;;10.75;77.31;98408.88;5066533;28;20044;-51
2022/09/16 02:07:28;;;;;;;15.77;10.55;;;;;;;10.82;77.68;98395.72;5051691;28;20485;-58
2022/09/16 02:10:00;;;;;;;16.25;11.35;;;;;;;10.86;77.26;98393.56;5051254;28;20033;-50
2022/09/16 02:12:31;;;;;;;13.98;10.55;;;;;;;10.94;76.81;98398.06;5065093;28;20032;-51
2022/09/16 02:15:04;;;;;;;15.60;10.30;;;;;;;10.98;77.18;98388.75;5071510;28;20029;-57
2022/09/16 02:17:34;;;;;;;19.48;10.30;;;;;;;11.01;76.83;98383.88;5068210;28;20045;-54
2022/09/16 02:20:13;;;;;;;15.07;10.63;;;;;;;11.13;76.50;98391.63;5051440;28;20040;-52
2022/09/16 02:22:53;;;;;;;13.73;10.65;;;;;;;11.31;76.02;98396.88;5051641;28;20047;-51
2022/09/16 02:25:21;;;;;;;16.42;9.90;;;;;;;11.24;75.53;98388.63;5068371;28;20451;-53
2022/09/16 02:27:49;;;;;;;15.13;10.43;;;;;;;11.25;75.65;98390.31;5075126;28;20037;-55
2022/09/16 02:30:18;;;;;;;18.10;10.63;;;;;;;11.31;75.56;98394.19;5065963;28;20098;-52
2022/09/16 02:32:53;;;;;;;15.10;10.30;;;;;;;11.39;75.47;98394.19;5055236;28;20032;-53
2022/09/16 02:35:20;;;;;;;14.68;10.27;;;;;;;11.35;75.22;98390.16;5064168;28;20025;-54
2022/09/16 02:38:00;;;;;;;11.93;9.82;;;;;;;11.45;75.16;98393.56;5056491;28;20126;-57
2022/09/16 02:40:34;;;;;;;13.07;10.55;;;;;;;11.48;75.35;98397.72;5055105;28;20029;-57
2022/09/16 02:43:00;;;;;;;15.98;11.30;;;;;;;11.47;74.76;98388.88;5071590;28;20103;-56
2022/09/16 02:45:45;;;;;;;15.73;10.77;;;;;;;11.59;74.65;98378.66;5074794;28;20031;-55
2022/09/16 02:48:20;;;;;;;17.85;11.18;;;;;;;11.57;74.40;98386.00;5054355;28;20348;-61
2022/09/16 02:51:06;;;;;;;16.80;10.60;;;;;;;11.59;74.60;98375.97;5055101;28;20049;-55
2022/09/16 02:53:49;;;;;;;16.55;10.05;;;;;;;11.58;74.24;98365.41;5064912;28;20132;-54
2022/09/16 02:56:30;;;;;;;12.73;9.82;;;;;;;11.62;74.28;98375.66;5074509;28;20495;-55
2022/09/16 02:58:55;;;;;;;16.55;10.30;;;;;;;11.58;74.08;98377.00;5074429;28;20082;-55
2022/09/16 03:01:23;;;;;;;13.88;9.57;;;;;;;11.60;74.02;98372.28;5073381;28;20044;-57
2022/09/16 03:03:49;;;;;;;16.77;10.82;;;;;;;11.62;73.87;98374.78;5074763;28;20040;-56
2022/09/16 03:06:17;;;;;;;15.32;10.23;;;;;;;11.65;73.68;98373.63;5074257;28;20064;-58
2022/09/16 03:08:44;;;;;;;14.65;10.25;;;;;;;11.68;73.72;98366.06;5069442;28;20117;-55
2022/09/16 03:11:24;;;;;;;19.58;10.38;;;;;;;11.82;73.52;98369.97;5054781;28;20040;-56
2022/09/16 03:14:10;;;;;;;15.90;10.75;;;;;;;11.87;73.31;98367.59;5054741;28;20025;-56
2022/09/16 03:16:51;;;;;;;15.05;10.38;;;;;;;11.96;73.32;98367.59;5063787;28;20059;-54
2022/09/16 03:19:31;;;;;;;16.65;10.65;;;;;;;11.94;72.94;98366.94;5074599;28;20067;-56
2022/09/16 03:22:25;;;;;;;15.57;10.85;;;;;;;12.05;73.05;98370.13;5069200;28;20065;-55
2022/09/16 03:25:05;;;;;;;16.63;10.05;;;;;;;12.03;72.45;98369.47;5054316;28;20359;-53
2022/09/16 03:27:38;;;;;;;12.73;10.30;;;;;;;12.06;72.27;98371.81;5055504;28;20070;-57
2022/09/16 03:30:07;;;;;;;16.02;9.93;;;;;;;12.08;72.00;98366.28;5056412;28;20487;-56
2022/09/16 03:32:42;;;;;;;13.13;9.90;;;;;;;12.20;72.00;98364.09;5073904;28;20040;-55
2022/09/16 03:35:20;;;;;;;12.48;9.95;;;;;;;12.19;72.08;98357.88;5058036;28;20098;-55
2022/09/16 03:37:46;;;;;;;14.55;9.68;;;;;;;12.20;71.31;98372.97;5057224;28;20590;-56
2022/09/16 03:40:17;;;;;;;13.57;9.88;;;;;;;12.22;71.40;98371.94;5072253;28;20044;-56
2022/09/16 03:42:43;;;;;;;17.33;10.50;;;;;;;12.16;71.53;98371.63;5073826;28;20362;-54
2022/09/16 03:45:13;;;;;;;12.13;10.02;;;;;;;12.20;71.20;98372.97;5072234;28;20024;-56
2022/09/16 03:47:39;;;;;;;15.98;9.65;;;;;;;12.15;71.16;98380.69;5054064;28;20505;-55
2022/09/16 03:50:05;;;;;;;16.58;10.15;;;;;;;12.16;71.12;98382.34;5053973;28;20136;-52
2022/09/16 03:52:31;;;;;;;13.65;9.40;;;;;;;12.16;71.12;98368.94;5055559;28;20463;-54
2022/09/16 03:54:56;;;;;;;12.00;8.82;;;;;;;12.20;70.89;98358.72;5054100;28;20035;-60
2022/09/16 03:57:22;;;;;;;13.02;9.30;;;;;;;12.13;71.01;98344.28;5053644;28;20035;-54
2022/09/16 03:59:47;;;;;;;15.32;9.57;;;;;;;12.13;70.58;98339.78;5063841;28;20105;-56
2022/09/16 04:02:12;;;;;;;12.45;9.55;;;;;;;12.30;70.46;98364.72;5073709;28;20035;-57
2022/09/16 04:04:38;;;;;;;14.45;9.27;;;;;;;12.31;70.66;98369.09;5070153;28;20103;-54
2022/09/16 04:07:03;;;;;;;13.30;9.00;;;;;;;12.33;70.28;98367.06;5053389;28;20485;-54
2022/09/16 04:09:29;;;;;;;17.08;9.75;;;;;;;12.36;70.38;98376.63;5053600;28;20025;-53
2022/09/16 04:11:54;;;;;;;15.45;10.15;;;;;;;12.37;70.26;98375.63;5051271;28;20028;-52
2022/09/16 04:14:20;;;;;;;11.85;9.48;;;;;;;12.32;70.08;98372.63;5073049;28;20028;-57
2022/09/16 04:16:45;;;;;;;17.58;9.90;;;;;;;12.35;70.32;98381.16;5067544;28;20056;-56
2022/09/16 04:19:12;;;;;;;14.13;9.43;;;;;;;12.37;70.27;98378.31;5053249;28;20421;-56
2022/09/16 04:21:39;;;;;;;14.43;10.07;;;;;;;12.38;70.29;98377.28;5055156;28;20363;-57
2022/09/16 04:24:07;;;;;;;15.88;9.65;;;;;;;12.41;70.18;98374.25;5055572;28;20052;-57
2022/09/16 04:26:33;;;;;;;15.00;9.27;;;;;;;12.43;70.23;98368.75;5071998;28;20443;-58
2022/09/16 04:28:59;;;;;;;15.65;9.68;;;;;;;12.46;69.93;98371.06;5042920;28;20090;-58
2022/09/16 04:31:24;;;;;;;13.15;10.00;;;;;;;12.48;69.73;98369.88;5053148;28;20036;-57
2022/09/16 04:33:49;;;;;;;16.15;10.57;;;;;;;12.51;69.75;98366.00;5054101;28;20032;-55
2022/09/16 04:36:18;;;;;;;14.13;10.27;;;;;;;12.53;69.67;98368.50;5073369;28;20093;-53
2022/09/16 04:38:46;;;;;;;16.65;10.57;;;;;;;12.58;69.59;98376.91;5060709;28;20032;-55
2022/09/16 04:41:13;;;;;;;13.10;10.25;;;;;;;12.55;69.64;98372.72;5066091;28;20117;-57
2022/09/16 04:43:39;;;;;;;15.07;10.40;;;;;;;12.52;69.84;98365.00;5073085;28;20021;-58
2022/09/16 04:46:05;;;;;;;16.40;10.10;;;;;;;12.54;69.84;98367.50;5065754;28;20044;-58
2022/09/16 04:48:31;;;;;;;14.20;10.23;;;;;;;12.56;69.96;98368.19;5051751;28;20106;-56
2022/09/16 04:51:07;;;;;;;15.82;10.57;;;;;;;12.71;69.54;98358.38;5052626;28;20045;-56
2022/09/16 04:53:33;;;;;;;;;;;;;;;12.98;69.28;98356.25;5071747;28;20462;-53
2022/09/16 04:56:04;;;;;;;;;;;;;;;13.19;67.63;98358.34;5073831;28;19922;-58
2022/09/16 04:58:30;;;;;;;18.15;11.00;;;;;;;12.87;68.40;98351.28;5070595;28;19917;-60
2022/09/16 05:00:55;;;;;;;19.70;11.10;;;;;;;12.68;68.70;98323.81;5071248;28;20079;-62
2022/09/16 05:03:21;;;;;;;15.95;10.05;;;;;;;12.82;68.93;98340.22;5058266;28;20032;-61
2022/09/16 05:05:46;;;;;;;18.15;10.90;;;;;;;12.64;68.95;98314.47;5052705;28;20466;-61
2022/09/16 05:08:12;;;;;;;17.42;10.85;;;;;;;12.79;69.04;98349.47;5052280;28;20104;-61
2022/09/16 05:10:37;;;;;;;15.15;10.52;;;;;;;12.82;68.98;98349.13;5053006;28;20124;-61
2022/09/16 05:13:03;;;;;;;13.75;10.77;;;;;;;12.85;68.82;98350.63;5052356;28;20336;-61
2022/09/16 05:15:28;;;;;;;18.30;11.38;;;;;;;12.84;68.91;98344.41;5054029;28;20033;-63
2022/09/16 05:17:54;;;;;;;19.20;10.75;;;;;;;12.83;68.82;98339.22;5052177;28;20467;-62
2022/09/16 05:20:19;;;;;;;18.30;10.80;;;;;;;12.84;68.96;98343.56;5051983;28;20473;-61
2022/09/16 05:22:48;;;;;;;18.20;10.38;;;;;;;12.83;69.02;98336.53;5052348;28;20032;-62
2022/09/16 05:25:14;;;;;;;15.40;11.52;;;;;;;12.87;69.12;98351.28;5053693;28;20075;-62
2022/09/16 05:27:39;;;;;;;21.55;11.45;;;;;;;12.90;69.17;98337.50;5052057;28;20060;-62
2022/09/16 05:30:05;;;;;;;17.77;11.48;;;;;;;12.95;68.87;98332.44;5052673;28;20037;-61
2022/09/16 05:32:31;;;;;;;17.02;11.13;;;;;;;12.94;69.01;98336.13;5052023;28;20029;-61
2022/09/16 05:34:57;;;;;;;16.30;10.57;;;;;;;12.96;68.91;98334.09;5051430;28;20363;-61
2022/09/16 05:37:22;;;;;;;19.75;11.30;;;;;;;12.95;69.25;98331.59;5052243;28;20033;-62
2022/09/16 05:39:48;;;;;;;16.75;11.23;;;;;;;12.99;69.04;98331.06;5050535;28;20025;-63
2022/09/16 05:42:13;;;;;;;15.52;11.48;;;;;;;13.09;68.95;98336.22;5052034;28;20385;-63
2022/09/16 05:44:39;;;;;;;18.40;11.43;;;;;;;13.16;68.77;98322.91;5050941;28;20025;-62
2022/09/16 05:47:04;;;;;;;20.52;11.68;;;;;;;13.30;68.12;98324.84;5033580;28;20423;-61
2022/09/16 05:49:30;;;;;;;16.83;11.38;;;;;;;13.34;68.35;98323.47;5052950;28;20056;-63
2022/09/16 05:51:55;;;;;;;14.93;11.57;;;;;;;13.43;68.05;98316.22;5051126;28;20458;-62
2022/09/16 05:54:23;;;;;;;19.65;11.48;;;;;;;13.38;67.93;98293.53;5060925;28;20029;-62
2022/09/16 05:56:50;;;;;;;17.95;11.30;;;;;;;13.71;67.30;98320.19;5071869;28;20177;-61
2022/09/16 05:59:16;;;;;;;18.42;11.60;;;;;;;13.89;66.81;98325.25;5058880;28;20450;-61
2022/09/16 06:01:42;;;;;;;20.67;11.27;;;;;;;14.01;66.22;98322.94;5054457;28;20041;-62
2022/09/16 06:04:10;;;;;;;16.52;11.00;;;;;;;14.15;65.78;98319.44;5055934;28;20048;-63
2022/09/16 06:06:44;;;;;;;15.40;11.02;;;;;;;14.20;65.79;98311.63;5056613;28;20025;-61
2022/09/16 06:09:19;;;;;;;18.58;11.05;;;;;;;14.34;65.49;98318.03;5055482;28;20363;-62
2022/09/16 06:11:47;;;;;;;16.70;11.57;;;;;;;14.39;65.12;98311.28;5056581;28;20631;-61
2022/09/16 06:14:14;;;;;;;18.77;12.15;;;;;;;14.47;64.70;98321.94;5055555;28;20032;-61
2022/09/16 06:16:40;;;;;;;17.73;11.77;;;;;;;14.54;64.79;98312.09;5056203;28;20086;-62
2022/09/16 06:19:09;;;;;;;16.58;12.07;;;;;;;14.67;64.48;98324.06;5070429;28;20340;-61
2022/09/16 06:21:36;;;;;;;16.70;12.02;;;;;;;14.63;64.40;98319.06;5075909;28;20024;-61
2022/09/16 06:24:02;;;;;;;19.80;12.38;;;;;;;14.63;64.36;98318.22;5075748;28;20407;-62
2022/09/16 06:26:28;;;;;;;23.08;12.82;;;;;;;14.64;64.58;98309.97;5052768;28;20043;-60
2022/09/16 06:28:54;;;;;;;16.80;12.02;;;;;;;14.66;64.24;98298.97;5054145;28;20415;-62
2022/09/16 06:31:22;;;;;;;18.17;12.43;;;;;;;14.75;64.61;98306.00;5037942;28;20064;-61
2022/09/16 06:33:51;;;;;;;20.33;12.23;;;;;;;14.84;63.99;98303.19;5055873;28;20043;-61
2022/09/16 06:36:20;;;;;;;16.65;12.27;;;;;;;14.96;63.94;98298.97;5054713;28;20029;-60
2022/09/16 06:38:47;;;;;;;19.42;12.60;;;;;;;14.88;63.61;98261.34;5054283;28;20028;-60
2022/09/16 06:41:14;;;;;;;19.63;12.20;;;;;;;15.23;63.14;98291.19;5054641;28;20033;-62
2022/09/16 06:43:41;;;;;;;19.85;12.68;;;;;;;15.40;62.56;98290.91;5054481;28;20036;-61
2022/09/16 06:46:14;;;;;;;22.83;12.82;;;;;;;15.56;62.32;98290.63;5055103;28;20035;-63
2022/09/16 06:48:42;;;;;;;20.95;13.18;;;;;;;15.54;61.93;98284.59;5053934;28;20032;-57
2022/09/16 06:51:16;;;;;;;18.67;12.20;;;;;;;15.77;61.75;98280.84;5062684;28;20083;-54
2022/09/16 06:53:43;;;;;;;22.60;13.02;;;;;;;15.98;60.76;98271.06;5074589;28;20072;-56
2022/09/16 06:56:11;;;;;;;20.50;12.52;;;;;;;16.61;59.38;98275.56;5058224;28;20025;-58
2022/09/16 06:58:38;;;;;;;20.85;12.73;;;;;;;17.06;57.50;98278.66;5054950;28;20024;-64
2022/09/16 07:01:08;;;;;;;16.88;12.75;;;;;;;17.35;56.87;98286.63;5053893;28;20108;-58
2022/09/16 07:03:37;;;;;;;15.73;12.27;;;;;;;17.48;56.55;98275.81;5054384;28;20153;-57
2022/09/16 07:06:03;;;;;;;19.52;12.90;;;;;;;17.63;56.05;98272.91;5054387;28;20067;-59
2022/09/16 07:08:31;;;;;;;20.85;12.88;;;;;;;17.86;55.29;98271.66;5066158;28;20075;-61
2022/09/16 07:11:09;;;;;;;18.13;13.00;;;;;;;18.15;54.94;98293.09;5060373;28;20112;-61
2022/09/16 07:13:35;;;;;;;16.00;12.52;;;;;;;18.28;54.27;98267.84;5055254;28;20119;-61
2022/09/16 07:16:03;;;;;;;22.08;12.85;;;;;;;18.54;53.71;98282.34;5054543;28;20108;-60
2022/09/16 07:18:29;;;;;;;17.42;12.88;;;;;;;18.61;52.99;98272.34;5074510;28;20028;-61
2022/09/16 07:21:06;;;;;;;16.45;12.05;;;;;;;18.75;53.69;98278.53;5074350;28;20032;-59
2022/09/16 07:23:33;;;;;;;20.15;12.40;;;;;;;18.58;53.20;98243.78;5072629;28;20535;-61
2022/09/16 07:26:09;;;;;;;17.73;12.13;;;;;;;18.75;53.32;98268.50;5073803;28;20841;-60
2022/09/16 07:28:36;;;;;;;19.15;13.70;;;;;;;18.56;53.32;98282.97;5071973;28;20032;-61
2022/09/16 07:31:04;;;;;;;18.92;12.52;;;;;;;18.33;54.09;98273.50;5073982;28;20081;-62
2022/09/16 07:33:31;;;;;;;16.77;13.02;;;;;;;18.18;54.63;98252.03;5072289;28;20151;-62
2022/09/16 07:35:59;;;;;;;19.35;13.73;;;;;;;18.31;54.67;98268.28;5073719;28;20355;-62
2022/09/16 07:38:25;;;;;;;17.65;13.82;;;;;;;18.49;53.97;98258.63;5073667;28;20032;-62
2022/09/16 07:40:51;;;;;;;19.27;14.05;;;;;;;18.54;53.86;98255.25;5059288;28;20032;-58
2022/09/16 07:43:16;;;;;;;21.05;13.77;;;;;;;18.44;53.93;98248.44;5053229;28;20094;-57
2022/09/16 07:45:42;;;;;;;20.42;12.88;;;;;;;18.54;54.08;98250.69;5052102;28;20037;-58
2022/09/16 07:48:08;;;;;;;27.90;14.40;;;;;;;18.73;53.44;98254.34;5053643;28;20021;-59
2022/09/16 07:50:33;;;;;;;15.45;13.23;;;;;;;19.01;52.85;98255.09;5051471;28;20084;-58
2022/09/16 07:52:59;;;;;;;20.80;13.30;;;;;;;19.20;52.12;98224.28;5053866;28;20045;-55
2022/09/16 07:55:25;;;;;;;23.77;13.35;;;;;;;19.75;51.16;98235.53;5054381;28;20367;-55
2022/09/16 07:57:50;;;;;;;20.42;13.88;;;;;;;20.04;50.29;98225.88;5068059;28;20144;-54
2022/09/16 08:00:16;;;;;;;21.80;13.07;;;;;;;20.30;49.86;98228.53;5057651;28;20598;-56
2022/09/16 08:02:41;;;;;;;19.85;13.00;;;;;;;20.56;49.24;98221.13;5052913;28;20522;-59
2022/09/16 08:05:08;;;;;;;16.83;12.77;;;;;;;20.75;48.57;98224.63;5054081;28;20032;-54
2022/09/16 08:07:34;;;;;;;16.95;13.05;;;;;;;20.77;48.44;98222.50;5059239;28;20033;-53
2022/09/16 08:09:59;;;;;;;18.48;13.05;;;;;;;20.94;48.15;98220.00;5053467;28;20049;-57
2022/09/16 08:12:25;;;;;;;16.77;13.10;;;;;;;21.04;47.40;98187.63;5058177;28;20047;-58
2022/09/16 08:14:50;;;;;;;16.27;12.13;;;;;;;21.58;46.57;98211.28;5062195;28;20036;-58
2022/09/16 08:17:16;;;;;;;18.45;12.18;;;;;;;21.91;45.59;98214.50;5019638;28;20033;-54
2022/09/16 08:19:41;;;;;;;21.48;12.68;;;;;;;22.19;44.79;98211.06;5052907;28;20033;-55
2022/09/16 08:22:07;;;;;;;16.13;11.30;;;;;;;22.44;44.18;98207.19;5056993;28;20362;-58
2022/09/16 08:24:32;;;;;;;17.92;11.38;;;;;;;22.64;43.39;98178.69;5072564;28;20032;-61
2022/09/16 08:26:58;;;;;;;23.33;13.90;;;;;;;23.11;43.01;98193.16;5069233;28;20113;-55
2022/09/16 08:29:24;;;;;;;46.85;14.07;;;;;;;23.28;41.97;98187.78;5072848;28;20067;-58
2022/09/16 08:31:50;;;;;;;25.52;12.38;;;;;;;23.39;41.92;98191.47;5072394;28;20041;-59
2022/09/16 08:34:16;;;;;;;22.20;12.27;;;;;;;23.48;41.55;98195.47;5073027;28;20059;-52
2022/09/16 08:36:42;;;;;;;16.95;11.77;;;;;;;23.41;41.54;98209.28;5056959;28;20459;-55
2022/09/16 08:39:09;;;;;;;19.52;12.65;;;;;;;23.07;42.18;98182.75;5052842;28;20108;-58
2022/09/16 08:42:08;;;;;;;18.25;11.70;;;;;;;23.23;43.37;98196.66;5053699;28;20523;-54
2022/09/16 08:45:10;;;;;;;18.33;13.20;;;;;;;23.29;43.12;98194.91;5053128;28;20071;-56
2022/09/16 08:48:18;;;;;;;19.58;12.65;;;;;;;23.32;42.53;98183.47;5058863;28;20028;-57
2022/09/16 08:50:47;;;;;;;14.48;12.82;;;;;;;23.20;42.10;98167.13;5015865;28;20042;-59
2022/09/16 08:53:36;;;;;;;14.73;12.25;;;;;;;23.44;42.29;98188.84;5070648;28;20036;-57
2022/09/16 08:56:11;;;;;;;17.10;12.25;;;;;;;23.43;42.05;98176.28;5055866;28;20037;-61
2022/09/16 08:58:47;;;;;;;20.67;13.80;;;;;;;23.60;41.94;98177.06;5052152;28;20032;-59
2022/09/16 09:01:35;;;;;;;12.15;9.68;;;;;;;23.88;41.62;98171.75;5071969;28;20041;-60
2022/09/16 09:04:01;;;;;;;15.70;9.15;;;;;;;23.64;40.32;98171.94;5072483;28;20039;-59
2022/09/16 09:06:48;;;;;;;11.95;9.32;;;;;;;23.71;41.51;98185.44;5052232;28;20115;-60
2022/09/16 09:09:38;;;;;;;11.13;8.73;;;;;;;23.46;41.11;98173.03;5059796;28;20036;-61
2022/09/16 09:12:14;;;;;;;12.38;8.52;;;;;;;23.18;41.32;98182.94;5067613;28;20032;-61
2022/09/16 09:15:03;;;;;;;10.82;8.23;;;;;;;22.86;41.56;98183.44;5062277;28;20044;-61
2022/09/16 09:18:07;;;;;;;11.43;8.05;;;;;;;22.58;41.82;98187.84;5031558;28;20053;-61
2022/09/16 09:20:51;;;;;;;9.82;8.57;;;;;;;22.27;43.41;98192.66;4997882;28;20137;-60
2022/09/16 09:23:37;;;;;;;9.98;8.98;;;;;;;21.88;44.38;98185.03;5066067;28;20055;-61
2022/09/16 09:26:07;;;;;;;10.93;8.65;;;;;;;21.46;44.94;98186.75;5064110;28;20047;-61
2022/09/16 09:28:51;;;;;;;13.60;9.15;;;;;;;21.36;45.71;98178.34;5050855;28;20033;-61
2022/09/16 09:31:54;;;;;;;15.63;9.65;;;;;;;21.27;46.01;98188.75;5052258;28;20348;-58
2022/09/16 09:34:35;;;;;;;13.38;9.32;;;;;;;21.02;46.40;98181.59;5071583;28;20029;-58
2022/09/16 09:37:00;;;;;;;10.52;9.32;;;;;;;20.83;46.69;98172.66;5071164;28;20458;-60
2022/09/16 09:39:31;;;;;;;10.65;9.40;;;;;;;20.74;47.27;98169.44;5070038;28;20073;-58
2022/09/16 09:42:17;;;;;;;13.35;9.18;;;;;;;20.86;47.12;98165.94;5052723;28;20063;-62
2022/09/16 09:44:49;;;;;;;11.77;8.93;;;;;;;20.99;47.16;98160.31;5031523;28;20064;-59
2022/09/16 09:47:35;;;;;;;11.55;9.13;;;;;;;21.29;46.76;98153.97;5056814;28;20037;-57
2022/09/16 09:50:30;;;;;;;17.02;9.00;;;;;;;21.67;45.98;98153.75;5068956;28;20113;-61
2022/09/16 09:52:58;;;;;;;16.83;10.20;;;;;;;21.73;45.48;98150.09;5071361;28;20052;-58
2022/09/16 09:55:26;;;;;;;12.77;9.73;;;;;;;21.72;45.48;98159.34;5070168;28;20053;-60
2022/09/16 09:58:36;;;;;;;11.20;9.40;;;;;;;21.65;45.58;98151.28;5056869;28;20075;-61
2022/09/16 10:01:02;;;;;;;11.77;9.60;;;;;;;21.48;45.80;98146.50;4943444;29;20055;-60
2022/09/16 10:03:30;;;;;;;12.88;9.45;;;;;;;21.40;45.98;98151.47;5032183;28;20041;-60
2022/09/16 10:05:56;;;;;;;9.88;8.85;;;;;;;21.19;46.40;98138.22;5051037;28;20060;-61
2022/09/16 10:08:41;;;;;;;11.18;9.32;;;;;;;21.22;45.95;98147.81;5057194;28;20075;-60
2022/09/16 10:11:24;;;;;;;10.27;8.80;;;;;;;21.30;46.20;98139.28;5064854;28;20462;-61
2022/09/16 10:14:00;;;;;;;9.73;8.80;;;;;;;20.89;46.54;98116.50;5050973;28;20059;-60
2022/09/16 10:16:36;;;;;;;12.68;8.40;;;;;;;20.86;46.79;98139.56;5050977;28;20124;-59
2022/09/16 10:19:14;;;;;;;10.40;7.95;;;;;;;20.75;46.68;98134.88;5031274;28;20288;-60
2022/09/16 10:21:47;;;;;;;11.95;8.88;;;;;;;20.75;46.54;98129.44;5032035;28;20114;-62
2022/09/16 10:24:33;;;;;;;10.85;7.85;;;;;;;20.92;46.87;98132.34;5031016;28;20356;-59
2022/09/16 10:27:01;;;;;;;10.00;7.32;;;;;;;20.77;46.44;98125.44;5058427;28;20052;-59
2022/09/16 10:29:28;;;;;;;14.07;7.65;;;;;;;20.65;46.34;98121.84;5053520;28;20025;-58
2022/09/16 10:31:54;;;;;;;10.20;7.15;;;;;;;20.43;46.96;98122.38;5051146;28;20415;-60
2022/09/16 10:34:31;;;;;;;11.13;7.40;;;;;;;20.32;47.42;98131.31;5051182;28;20028;-60
2022/09/16 10:37:00;;;;;;;12.63;7.22;;;;;;;20.21;47.22;98113.88;5053974;28;20307;-61
2022/09/16 10:39:27;;;;;;;12.32;7.00;;;;;;;20.18;46.88;98098.88;5051334;28;20119;-61
2022/09/16 10:41:52;;;;;;;8.77;7.00;;;;;;;20.15;46.86;98114.81;5051297;28;20371;-61
2022/09/16 10:44:24;;;;;;;8.98;7.00;;;;;;;20.26;46.53;98111.31;5050313;28;20021;-60
2022/09/16 10:47:17;;;;;;;8.55;5.88;;;;;;;20.36;46.94;98108.03;5051901;28;20150;-62
2022/09/16 10:49:49;;;;;;;7.25;6.35;;;;;;;20.32;46.16;98113.09;5055439;28;20459;-63
2022/09/16 10:52:21;;;;;;;6.85;6.20;;;;;;;20.22;46.55;98110.94;5075284;28;20032;-61
2022/09/16 10:54:48;;;;;;;7.80;6.38;;;;;;;20.13;46.97;98101.44;5074592;28;20086;-61
2022/09/16 10:57:25;;;;;;;10.77;7.25;;;;;;;20.21;47.44;98101.13;5072644;28;20032;-56
2022/09/16 11:00:15;;;;;;;8.32;6.93;;;;;;;20.19;47.39;98108.66;5054587;28;20037;-57
2022/09/16 11:03:11;;;;;;;8.77;6.25;;;;;;;20.11;47.40;98095.41;5054777;28;20033;-55
2022/09/16 11:06:14;;;;;;;11.77;6.50;;;;;;;19.92;47.98;98095.41;5036548;28;20116;-55
2022/09/16 11:08:48;;;;;;;9.52;6.20;;;;;;;19.58;48.27;98092.25;5042159;28;20102;-54
2022/09/16 11:11:38;;;;;;;9.95;6.38;;;;;;;19.55;48.80;98097.28;5055311;28;20033;-60
2022/09/16 11:14:22;;;;;;;8.23;5.78;;;;;;;19.46;49.17;98081.28;5053474;28;20028;-60
2022/09/16 11:17:04;;;;;;;11.50;6.75;;;;;;;19.20;49.81;98058.81;5054881;28;20082;-61
2022/09/16 11:19:47;;;;;;;12.13;6.50;;;;;;;19.24;50.18;98074.63;5054069;28;20041;-61
2022/09/16 11:22:57;;;;;;;10.02;6.47;;;;;;;19.32;49.94;98075.19;5054140;28;20037;-62
2022/09/16 11:25:55;;;;;;;10.93;6.90;;;;;;;19.32;49.76;98083.31;5053968;28;20043;-61
2022/09/16 11:28:56;;;;;;;9.38;6.78;;;;;;;19.25;50.20;98071.69;5035999;28;20396;-60
2022/09/16 11:31:24;;;;;;;8.80;6.47;;;;;;;19.07;50.21;98064.34;5059343;28;20120;-61
2022/09/16 11:34:17;;;;;;;11.48;6.15;;;;;;;19.10;50.79;98082.88;5072428;28;20129;-62
2022/09/16 11:37:12;;;;;;;12.93;6.82;;;;;;;19.01;50.53;98060.63;5064077;28;20029;-61
2022/09/16 11:39:58;;;;;;;9.25;6.63;;;;;;;18.89;51.03;98057.78;5072418;28;20028;-61
2022/09/16 11:42:28;;;;;;;10.57;6.70;;;;;;;18.76;50.44;98068.75;5072430;28;20032;-61
2022/09/16 11:45:24;;;;;;;8.80;6.80;;;;;;;18.79;50.67;98062.88;5071722;28;20036;-62
2022/09/16 11:47:56;;;;;;;11.93;7.65;;;;;;;18.57;51.20;98043.47;5073402;28;20056;-61